sensor_id;sensor_type;location;lat;lon;timestamp;temperature;humidity
20498;DHT22;10407;53.238;10.448;2022-07-23T00:00:50;18.70;99.90
20498;DHT22;10407;53.238;10.448;2022-07-23T00:03:17;18.70;99.90
20498;DHT22;10407;53.238;10.448;2022-07-23T00:05:45;18.50;99.90
20498;DHT22;10407;53.238;10.448;2022-07-23T00:08:12;18.60;99.90
20498;DHT22;10407;53.238;10.448;2022-07-23T00:10:40;18.60;99.90
20498;DHT22;10407;53.238;10.448;2022-07-23T00:13:07;18.70;99.90
20498;DHT22;10407;53.238;10.448;2022-07-23T00:15:35;18.70;99.90
20498;DHT22;10407;53.238;10.448;2022-07-23T00:18:03;18.80;99.90
20498;DHT22;10407;53.238;10.448;2022-07-23T00:20:30;18.80;99.90
20498;DHT22;10407;53.238;10.448;2022-07-23T00:22:58;18.80;99.90
20498;DHT22;10407;53.238;10.448;2022-07-23T00:25:27;18.50;99.90
20498;DHT22;10407;53.238;10.448;2022-07-23T00:27:54;18.40;99.90
20498;DHT22;10407;53.238;10.448;2022-07-23T00:30:22;18.30;99.90
20498;DHT22;10407;53.238;10.448;2022-07-23T00:32:52;18.40;99.90
20498;DHT22;10407;53.238;10.448;2022-07-23T00:35:21;18.40;99.90
20498;DHT22;10407;53.238;10.448;2022-07-23T00:37:48;18.20;99.90
20498;DHT22;10407;53.238;10.448;2022-07-23T00:40:16;17.80;99.90
20498;DHT22;10407;53.238;10.448;2022-07-23T00:42:44;17.90;99.90
20498;DHT22;10407;53.238;10.448;2022-07-23T00:45:11;17.90;99.90
20498;DHT22;10407;53.238;10.448;2022-07-23T00:47:40;17.80;99.90
20498;DHT22;10407;53.238;10.448;2022-07-23T00:50:08;17.80;99.90
20498;DHT22;10407;53.238;10.448;2022-07-23T00:52:37;17.80;99.90
20498;DHT22;10407;53.238;10.448;2022-07-23T00:55:08;17.70;99.90
20498;DHT22;10407;53.238;10.448;2022-07-23T00:57:37;17.40;99.90
20498;DHT22;10407;53.238;10.448;2022-07-23T01:00:07;17.40;99.90
20498;DHT22;10407;53.238;10.448;2022-07-23T01:02:35;17.70;99.90
20498;DHT22;10407;53.238;10.448;2022-07-23T01:05:04;17.90;99.90
20498;DHT22;10407;53.238;10.448;2022-07-23T01:07:31;17.80;99.90
20498;DHT22;10407;53.238;10.448;2022-07-23T01:10:00;17.80;99.90
20498;DHT22;10407;53.238;10.448;2022-07-23T01:12:28;17.60;99.90
20498;DHT22;10407;53.238;10.448;2022-07-23T01:14:57;17.70;99.90
20498;DHT22;10407;53.238;10.448;2022-07-23T01:17:26;17.60;99.90
20498;DHT22;10407;53.238;10.448;2022-07-23T01:19:54;17.40;99.90
20498;DHT22;10407;53.238;10.448;2022-07-23T01:22:22;17.20;99.90
20498;DHT22;10407;53.238;10.448;2022-07-23T01:24:50;17.10;99.90
20498;DHT22;10407;53.238;10.448;2022-07-23T01:27:18;17.20;99.90
20498;DHT22;10407;53.238;10.448;2022-07-23T01:29:47;17.10;99.90
20498;DHT22;10407;53.238;10.448;2022-07-23T01:32:15;17.10;99.90
20498;DHT22;10407;53.238;10.448;2022-07-23T01:34:42;16.90;99.90
20498;DHT22;10407;53.238;10.448;2022-07-23T01:37:10;16.70;99.90
20498;DHT22;10407;53.238;10.448;2022-07-23T01:39:37;16.90;99.90
20498;DHT22;10407;53.238;10.448;2022-07-23T01:42:05;16.70;99.90
20498;DHT22;10407;53.238;10.448;2022-07-23T01:44:32;16.90;99.90
20498;DHT22;10407;53.238;10.448;2022-07-23T01:47:00;16.70;99.90
20498;DHT22;10407;53.238;10.448;2022-07-23T01:49:28;16.80;99.90
20498;DHT22;10407;53.238;10.448;2022-07-23T01:51:55;16.70;99.90
20498;DHT22;10407;53.238;10.448;2022-07-23T01:54:31;16.60;99.90
20498;DHT22;10407;53.238;10.448;2022-07-23T01:56:59;16.80;99.90
20498;DHT22;10407;53.238;10.448;2022-07-23T01:59:27;16.80;99.90
20498;DHT22;10407;53.238;10.448;2022-07-23T02:01:55;17.00;99.90
20498;DHT22;10407;53.238;10.448;2022-07-23T02:04:24;16.80;99.90
20498;DHT22;10407;53.238;10.448;2022-07-23T02:06:53;17.00;99.90
20498;DHT22;10407;53.238;10.448;2022-07-23T02:09:21;17.10;99.90
20498;DHT22;10407;53.238;10.448;2022-07-23T02:11:49;17.20;99.90
20498;DHT22;10407;53.238;10.448;2022-07-23T02:14:16;17.20;99.90
20498;DHT22;10407;53.238;10.448;2022-07-23T02:16:44;17.10;99.90
20498;DHT22;10407;53.238;10.448;2022-07-23T02:19:11;17.10;99.90
20498;DHT22;10407;53.238;10.448;2022-07-23T02:21:39;16.90;99.90
20498;DHT22;10407;53.238;10.448;2022-07-23T02:24:07;16.90;99.90
20498;DHT22;10407;53.238;10.448;2022-07-23T02:26:34;16.70;99.90
20498;DHT22;10407;53.238;10.448;2022-07-23T02:29:03;16.20;99.90
20498;DHT22;10407;53.238;10.448;2022-07-23T02:31:31;16.30;99.90
20498;DHT22;10407;53.238;10.448;2022-07-23T02:33:58;16.30;99.90
20498;DHT22;10407;53.238;10.448;2022-07-23T02:36:26;16.30;99.90
20498;DHT22;10407;53.238;10.448;2022-07-23T02:38:53;16.30;99.90
20498;DHT22;10407;53.238;10.448;2022-07-23T02:41:21;16.40;99.90
20498;DHT22;10407;53.238;10.448;2022-07-23T02:43:49;16.40;99.90
20498;DHT22;10407;53.238;10.448;2022-07-23T02:46:17;16.10;99.90
20498;DHT22;10407;53.238;10.448;2022-07-23T02:48:44;16.00;99.90
20498;DHT22;10407;53.238;10.448;2022-07-23T02:51:12;16.10;99.90
20498;DHT22;10407;53.238;10.448;2022-07-23T02:53:39;15.80;99.90
20498;DHT22;10407;53.238;10.448;2022-07-23T02:56:07;16.00;99.90
20498;DHT22;10407;53.238;10.448;2022-07-23T02:58:34;15.40;99.90
20498;DHT22;10407;53.238;10.448;2022-07-23T03:01:02;15.60;99.90
20498;DHT22;10407;53.238;10.448;2022-07-23T03:03:30;15.60;99.90
20498;DHT22;10407;53.238;10.448;2022-07-23T03:05:58;15.60;99.90
20498;DHT22;10407;53.238;10.448;2022-07-23T03:08:25;15.70;99.90
20498;DHT22;10407;53.238;10.448;2022-07-23T03:10:53;15.80;99.90
20498;DHT22;10407;53.238;10.448;2022-07-23T03:13:20;15.50;99.90
20498;DHT22;10407;53.238;10.448;2022-07-23T03:15:48;15.20;99.90
20498;DHT22;10407;53.238;10.448;2022-07-23T03:18:15;15.50;99.90
20498;DHT22;10407;53.238;10.448;2022-07-23T03:20:43;15.70;99.90
20498;DHT22;10407;53.238;10.448;2022-07-23T03:23:11;15.70;99.90
20498;DHT22;10407;53.238;10.448;2022-07-23T03:25:38;15.30;99.90
20498;DHT22;10407;53.238;10.448;2022-07-23T03:28:06;14.90;99.90
20498;DHT22;10407;53.238;10.448;2022-07-23T03:30:33;14.80;99.90
20498;DHT22;10407;53.238;10.448;2022-07-23T03:33:01;14.60;99.90
20498;DHT22;10407;53.238;10.448;2022-07-23T03:35:28;14.90;99.90
20498;DHT22;10407;53.238;10.448;2022-07-23T03:37:56;14.70;99.90
20498;DHT22;10407;53.238;10.448;2022-07-23T03:40:23;14.70;99.90
20498;DHT22;10407;53.238;10.448;2022-07-23T03:42:51;15.20;99.90
20498;DHT22;10407;53.238;10.448;2022-07-23T03:45:18;15.40;99.90
20498;DHT22;10407;53.238;10.448;2022-07-23T03:47:46;15.20;99.90
20498;DHT22;10407;53.238;10.448;2022-07-23T03:50:13;15.10;99.90
20498;DHT22;10407;53.238;10.448;2022-07-23T03:52:41;15.30;99.90
20498;DHT22;10407;53.238;10.448;2022-07-23T03:55:09;14.90;99.90
20498;DHT22;10407;53.238;10.448;2022-07-23T03:57:36;14.30;99.90
20498;DHT22;10407;53.238;10.448;2022-07-23T04:00:05;14.80;99.90
20498;DHT22;10407;53.238;10.448;2022-07-23T04:02:34;15.20;99.90
20498;DHT22;10407;53.238;10.448;2022-07-23T04:05:01;16.50;99.90
20498;DHT22;10407;53.238;10.448;2022-07-23T04:07:29;17.50;99.90
20498;DHT22;10407;53.238;10.448;2022-07-23T04:09:57;18.00;99.90
20498;DHT22;10407;53.238;10.448;2022-07-23T04:12:25;17.80;99.90
20498;DHT22;10407;53.238;10.448;2022-07-23T04:14:52;18.30;99.90
20498;DHT22;10407;53.238;10.448;2022-07-23T04:17:20;18.90;99.90
20498;DHT22;10407;53.238;10.448;2022-07-23T04:19:47;18.80;99.90
20498;DHT22;10407;53.238;10.448;2022-07-23T04:22:15;18.30;99.90
20498;DHT22;10407;53.238;10.448;2022-07-23T04:24:43;17.80;99.90
20498;DHT22;10407;53.238;10.448;2022-07-23T04:27:10;17.80;99.90
20498;DHT22;10407;53.238;10.448;2022-07-23T04:29:38;17.30;99.90
20498;DHT22;10407;53.238;10.448;2022-07-23T04:32:05;18.40;99.90
20498;DHT22;10407;53.238;10.448;2022-07-23T04:34:33;18.50;99.90
20498;DHT22;10407;53.238;10.448;2022-07-23T04:37:00;17.50;99.90
20498;DHT22;10407;53.238;10.448;2022-07-23T04:39:28;17.00;99.90
20498;DHT22;10407;53.238;10.448;2022-07-23T04:41:56;17.10;99.90
20498;DHT22;10407;53.238;10.448;2022-07-23T04:44:23;16.90;99.90
20498;DHT22;10407;53.238;10.448;2022-07-23T04:46:51;16.90;99.90
20498;DHT22;10407;53.238;10.448;2022-07-23T04:49:18;16.70;99.90
20498;DHT22;10407;53.238;10.448;2022-07-23T04:51:46;16.80;99.90
20498;DHT22;10407;53.238;10.448;2022-07-23T04:54:13;16.70;99.90
20498;DHT22;10407;53.238;10.448;2022-07-23T04:56:43;16.70;99.90
20498;DHT22;10407;53.238;10.448;2022-07-23T04:59:10;16.50;99.90
20498;DHT22;10407;53.238;10.448;2022-07-23T05:01:37;16.30;99.90
20498;DHT22;10407;53.238;10.448;2022-07-23T05:04:05;16.30;99.90
20498;DHT22;10407;53.238;10.448;2022-07-23T05:06:32;16.30;99.90
20498;DHT22;10407;53.238;10.448;2022-07-23T05:09:00;16.30;99.90
20498;DHT22;10407;53.238;10.448;2022-07-23T05:11:28;16.30;99.90
20498;DHT22;10407;53.238;10.448;2022-07-23T05:13:55;16.20;99.90
20498;DHT22;10407;53.238;10.448;2022-07-23T05:16:23;16.30;99.90
20498;DHT22;10407;53.238;10.448;2022-07-23T05:18:50;16.30;99.90
20498;DHT22;10407;53.238;10.448;2022-07-23T05:21:18;16.20;99.90
20498;DHT22;10407;53.238;10.448;2022-07-23T05:23:46;16.20;99.90
20498;DHT22;10407;53.238;10.448;2022-07-23T05:26:13;16.20;99.90
20498;DHT22;10407;53.238;10.448;2022-07-23T05:28:41;16.10;99.90
20498;DHT22;10407;53.238;10.448;2022-07-23T05:31:08;16.20;99.90
20498;DHT22;10407;53.238;10.448;2022-07-23T05:33:36;16.30;99.90
20498;DHT22;10407;53.238;10.448;2022-07-23T05:36:04;16.20;99.90
20498;DHT22;10407;53.238;10.448;2022-07-23T05:38:32;16.30;99.90
20498;DHT22;10407;53.238;10.448;2022-07-23T05:41:00;16.50;99.90
20498;DHT22;10407;53.238;10.448;2022-07-23T05:43:28;16.90;99.90
20498;DHT22;10407;53.238;10.448;2022-07-23T05:45:56;17.00;99.90
20498;DHT22;10407;53.238;10.448;2022-07-23T05:48:23;16.90;99.90
20498;DHT22;10407;53.238;10.448;2022-07-23T05:50:51;17.30;99.90
20498;DHT22;10407;53.238;10.448;2022-07-23T05:53:19;17.40;99.90
20498;DHT22;10407;53.238;10.448;2022-07-23T05:55:47;17.20;99.90
20498;DHT22;10407;53.238;10.448;2022-07-23T05:58:14;17.20;99.90
20498;DHT22;10407;53.238;10.448;2022-07-23T06:00:42;17.00;99.90
20498;DHT22;10407;53.238;10.448;2022-07-23T06:03:09;16.80;99.90
20498;DHT22;10407;53.238;10.448;2022-07-23T06:05:37;16.90;99.90
20498;DHT22;10407;53.238;10.448;2022-07-23T06:08:04;17.20;99.90
20498;DHT22;10407;53.238;10.448;2022-07-23T06:10:32;17.40;99.90
20498;DHT22;10407;53.238;10.448;2022-07-23T06:12:59;21.50;99.90
20498;DHT22;10407;53.238;10.448;2022-07-23T06:15:27;24.90;99.90
20498;DHT22;10407;53.238;10.448;2022-07-23T06:17:55;25.00;99.90
20498;DHT22;10407;53.238;10.448;2022-07-23T06:20:22;24.60;99.90
20498;DHT22;10407;53.238;10.448;2022-07-23T06:23:09;22.70;99.90
20498;DHT22;10407;53.238;10.448;2022-07-23T06:25:38;24.80;99.90
20498;DHT22;10407;53.238;10.448;2022-07-23T06:28:25;25.20;99.90
20498;DHT22;10407;53.238;10.448;2022-07-23T06:30:53;26.60;99.90
20498;DHT22;10407;53.238;10.448;2022-07-23T06:33:20;27.20;99.90
20498;DHT22;10407;53.238;10.448;2022-07-23T06:35:48;27.70;99.10
20498;DHT22;10407;53.238;10.448;2022-07-23T06:38:15;28.10;98.00
20498;DHT22;10407;53.238;10.448;2022-07-23T06:40:43;28.00;98.10
20498;DHT22;10407;53.238;10.448;2022-07-23T06:43:11;26.00;99.70
20498;DHT22;10407;53.238;10.448;2022-07-23T06:45:39;25.00;99.90
20498;DHT22;10407;53.238;10.448;2022-07-23T06:48:06;25.10;99.90
20498;DHT22;10407;53.238;10.448;2022-07-23T06:50:34;25.20;99.90
20498;DHT22;10407;53.238;10.448;2022-07-23T06:53:01;25.10;99.90
20498;DHT22;10407;53.238;10.448;2022-07-23T06:55:29;25.40;99.90
20498;DHT22;10407;53.238;10.448;2022-07-23T06:57:57;25.20;99.90
20498;DHT22;10407;53.238;10.448;2022-07-23T07:00:25;25.80;99.90
20498;DHT22;10407;53.238;10.448;2022-07-23T07:02:54;25.80;99.90
20498;DHT22;10407;53.238;10.448;2022-07-23T07:05:21;25.90;99.90
20498;DHT22;10407;53.238;10.448;2022-07-23T07:07:49;26.30;99.90
20498;DHT22;10407;53.238;10.448;2022-07-23T07:10:17;26.40;99.90
20498;DHT22;10407;53.238;10.448;2022-07-23T07:12:44;25.90;99.90
20498;DHT22;10407;53.238;10.448;2022-07-23T07:15:12;26.10;99.90
20498;DHT22;10407;53.238;10.448;2022-07-23T07:17:39;25.20;99.90
20498;DHT22;10407;53.238;10.448;2022-07-23T07:20:09;26.00;99.90
20498;DHT22;10407;53.238;10.448;2022-07-23T07:22:37;25.80;99.90
20498;DHT22;10407;53.238;10.448;2022-07-23T07:25:05;26.10;99.90
20498;DHT22;10407;53.238;10.448;2022-07-23T07:27:33;26.40;99.00
20498;DHT22;10407;53.238;10.448;2022-07-23T07:30:02;25.70;99.40
20498;DHT22;10407;53.238;10.448;2022-07-23T07:32:29;25.40;99.90
20498;DHT22;10407;53.238;10.448;2022-07-23T07:34:59;25.40;99.90
20498;DHT22;10407;53.238;10.448;2022-07-23T07:37:26;26.30;98.10
20498;DHT22;10407;53.238;10.448;2022-07-23T07:39:56;26.90;96.80
20498;DHT22;10407;53.238;10.448;2022-07-23T07:42:23;27.20;95.40
20498;DHT22;10407;53.238;10.448;2022-07-23T07:44:51;26.40;94.80
20498;DHT22;10407;53.238;10.448;2022-07-23T07:47:18;25.20;97.10
20498;DHT22;10407;53.238;10.448;2022-07-23T07:49:46;24.50;98.90
20498;DHT22;10407;53.238;10.448;2022-07-23T07:52:13;24.50;99.90
20498;DHT22;10407;53.238;10.448;2022-07-23T07:54:41;25.40;99.00
20498;DHT22;10407;53.238;10.448;2022-07-23T07:57:09;26.30;95.50
20498;DHT22;10407;53.238;10.448;2022-07-23T07:59:36;26.80;93.80
20498;DHT22;10407;53.238;10.448;2022-07-23T08:02:04;27.20;91.90
20498;DHT22;10407;53.238;10.448;2022-07-23T08:04:31;27.50;90.50
20498;DHT22;10407;53.238;10.448;2022-07-23T08:06:59;27.70;89.40
20498;DHT22;10407;53.238;10.448;2022-07-23T08:09:27;28.00;87.60
20498;DHT22;10407;53.238;10.448;2022-07-23T08:12:13;26.90;87.50
20498;DHT22;10407;53.238;10.448;2022-07-23T08:14:41;26.50;90.20
20498;DHT22;10407;53.238;10.448;2022-07-23T08:17:08;25.80;90.70
20498;DHT22;10407;53.238;10.448;2022-07-23T08:19:36;26.70;89.50
20498;DHT22;10407;53.238;10.448;2022-07-23T08:22:04;27.00;87.30
20498;DHT22;10407;53.238;10.448;2022-07-23T08:24:31;27.00;86.30
20498;DHT22;10407;53.238;10.448;2022-07-23T08:26:59;27.00;84.40
20498;DHT22;10407;53.238;10.448;2022-07-23T08:29:26;26.70;84.40
20498;DHT22;10407;53.238;10.448;2022-07-23T08:32:08;26.70;84.70
20498;DHT22;10407;53.238;10.448;2022-07-23T08:34:23;27.00;83.00
20498;DHT22;10407;53.238;10.448;2022-07-23T08:36:51;27.60;80.50
20498;DHT22;10407;53.238;10.448;2022-07-23T08:39:24;27.80;79.70
20498;DHT22;10407;53.238;10.448;2022-07-23T08:41:51;27.50;79.20
20498;DHT22;10407;53.238;10.448;2022-07-23T08:44:19;26.90;78.80
20498;DHT22;10407;53.238;10.448;2022-07-23T08:46:48;26.30;79.50
20498;DHT22;10407;53.238;10.448;2022-07-23T08:49:15;26.00;81.10
20498;DHT22;10407;53.238;10.448;2022-07-23T08:51:43;25.50;80.20
20498;DHT22;10407;53.238;10.448;2022-07-23T08:54:17;25.00;84.20
20498;DHT22;10407;53.238;10.448;2022-07-23T08:56:45;25.40;84.40
20498;DHT22;10407;53.238;10.448;2022-07-23T08:59:12;25.50;84.50
20498;DHT22;10407;53.238;10.448;2022-07-23T09:01:40;25.50;83.70
20498;DHT22;10407;53.238;10.448;2022-07-23T09:04:08;25.70;83.20
20498;DHT22;10407;53.238;10.448;2022-07-23T09:06:38;25.80;83.80
20498;DHT22;10407;53.238;10.448;2022-07-23T09:09:19;25.90;83.50
20498;DHT22;10407;53.238;10.448;2022-07-23T09:11:48;25.60;83.80
20498;DHT22;10407;53.238;10.448;2022-07-23T09:14:16;25.50;85.00
20498;DHT22;10407;53.238;10.448;2022-07-23T09:16:45;25.30;85.20
20498;DHT22;10407;53.238;10.448;2022-07-23T09:19:12;25.00;86.00
20498;DHT22;10407;53.238;10.448;2022-07-23T09:21:40;24.90;86.40
20498;DHT22;10407;53.238;10.448;2022-07-23T09:24:10;24.40;88.20
20498;DHT22;10407;53.238;10.448;2022-07-23T09:26:42;24.20;89.40
20498;DHT22;10407;53.238;10.448;2022-07-23T09:29:17;24.40;89.30
20498;DHT22;10407;53.238;10.448;2022-07-23T09:31:47;24.40;90.40
20498;DHT22;10407;53.238;10.448;2022-07-23T09:34:24;25.10;89.90
20498;DHT22;10407;53.238;10.448;2022-07-23T09:37:09;25.80;86.00
20498;DHT22;10407;53.238;10.448;2022-07-23T09:39:31;25.80;85.80
20498;DHT22;10407;53.238;10.448;2022-07-23T09:42:22;25.50;85.80
20498;DHT22;10407;53.238;10.448;2022-07-23T09:44:30;24.90;87.20
20498;DHT22;10407;53.238;10.448;2022-07-23T09:47:00;24.80;89.50
20498;DHT22;10407;53.238;10.448;2022-07-23T09:49:28;24.70;90.30
20498;DHT22;10407;53.238;10.448;2022-07-23T09:51:58;24.70;89.20
20498;DHT22;10407;53.238;10.448;2022-07-23T09:54:36;24.60;89.20
20498;DHT22;10407;53.238;10.448;2022-07-23T09:57:11;24.60;88.70
20498;DHT22;10407;53.238;10.448;2022-07-23T09:59:44;24.30;89.40
20498;DHT22;10407;53.238;10.448;2022-07-23T10:02:15;24.30;89.50
20498;DHT22;10407;53.238;10.448;2022-07-23T10:04:43;24.20;89.70
20498;DHT22;10407;53.238;10.448;2022-07-23T10:07:11;24.40;90.40
20498;DHT22;10407;53.238;10.448;2022-07-23T10:09:41;24.60;90.10
20498;DHT22;10407;53.238;10.448;2022-07-23T10:12:14;24.90;90.40
20498;DHT22;10407;53.238;10.448;2022-07-23T10:14:46;24.90;90.10
20498;DHT22;10407;53.238;10.448;2022-07-23T10:17:15;24.90;90.00
20498;DHT22;10407;53.238;10.448;2022-07-23T10:19:45;25.00;88.80
20498;DHT22;10407;53.238;10.448;2022-07-23T10:22:27;25.40;87.70
20498;DHT22;10407;53.238;10.448;2022-07-23T10:30:26;25.20;85.70
20498;DHT22;10407;53.238;10.448;2022-07-23T10:35:54;24.90;84.00
20498;DHT22;10407;53.238;10.448;2022-07-23T10:38:30;25.10;85.10
20498;DHT22;10407;53.238;10.448;2022-07-23T10:41:01;25.30;83.60
20498;DHT22;10407;53.238;10.448;2022-07-23T10:43:30;25.00;81.70
20498;DHT22;10407;53.238;10.448;2022-07-23T10:46:24;25.10;83.60
20498;DHT22;10407;53.238;10.448;2022-07-23T10:49:25;25.10;82.90
20498;DHT22;10407;53.238;10.448;2022-07-23T10:54:45;25.10;81.50
20498;DHT22;10407;53.238;10.448;2022-07-23T10:57:14;25.40;80.70
20498;DHT22;10407;53.238;10.448;2022-07-23T11:02:46;26.00;78.00
20498;DHT22;10407;53.238;10.448;2022-07-23T11:05:17;26.10;73.20
20498;DHT22;10407;53.238;10.448;2022-07-23T11:10:45;25.90;74.60
20498;DHT22;10407;53.238;10.448;2022-07-23T11:16:07;25.30;75.10
20498;DHT22;10407;53.238;10.448;2022-07-23T11:24:03;24.80;76.00
20498;DHT22;10407;53.238;10.448;2022-07-23T11:32:07;25.70;74.90
20498;DHT22;10407;53.238;10.448;2022-07-23T11:34:43;25.60;75.00
20498;DHT22;10407;53.238;10.448;2022-07-23T11:40:10;25.80;75.50
20498;DHT22;10407;53.238;10.448;2022-07-23T11:42:36;25.60;75.70
20498;DHT22;10407;53.238;10.448;2022-07-23T11:45:07;25.10;77.00
20498;DHT22;10407;53.238;10.448;2022-07-23T11:47:35;25.20;77.10
20498;DHT22;10407;53.238;10.448;2022-07-23T11:50:05;24.40;78.10
20498;DHT22;10407;53.238;10.448;2022-07-23T11:52:34;25.10;77.20
20498;DHT22;10407;53.238;10.448;2022-07-23T11:55:04;25.30;77.20
20498;DHT22;10407;53.238;10.448;2022-07-23T11:57:35;25.40;76.80
20498;DHT22;10407;53.238;10.448;2022-07-23T12:00:08;24.70;79.40
20498;DHT22;10407;53.238;10.448;2022-07-23T12:02:42;25.00;78.70
20498;DHT22;10407;53.238;10.448;2022-07-23T12:05:18;25.20;78.50
20498;DHT22;10407;53.238;10.448;2022-07-23T12:07:48;25.40;77.90
20498;DHT22;10407;53.238;10.448;2022-07-23T12:10:21;25.60;78.10
20498;DHT22;10407;53.238;10.448;2022-07-23T12:12:57;25.60;77.40
20498;DHT22;10407;53.238;10.448;2022-07-23T12:15:31;25.10;77.50
20498;DHT22;10407;53.238;10.448;2022-07-23T12:18:02;24.80;77.40
20498;DHT22;10407;53.238;10.448;2022-07-23T12:20:32;24.90;76.00
20498;DHT22;10407;53.238;10.448;2022-07-23T12:23:02;24.90;74.40
20498;DHT22;10407;53.238;10.448;2022-07-23T12:25:33;25.20;74.30
20498;DHT22;10407;53.238;10.448;2022-07-23T12:28:15;25.40;73.60
20498;DHT22;10407;53.238;10.448;2022-07-23T12:30:55;25.20;72.80
20498;DHT22;10407;53.238;10.448;2022-07-23T12:33:30;25.40;74.00
20498;DHT22;10407;53.238;10.448;2022-07-23T12:36:00;25.60;74.10
20498;DHT22;10407;53.238;10.448;2022-07-23T12:38:35;25.30;73.50
20498;DHT22;10407;53.238;10.448;2022-07-23T12:40:59;25.20;74.50
20498;DHT22;10407;53.238;10.448;2022-07-23T12:43:33;25.00;75.50
20498;DHT22;10407;53.238;10.448;2022-07-23T12:46:12;25.00;75.00
20498;DHT22;10407;53.238;10.448;2022-07-23T12:48:53;25.20;74.40
20498;DHT22;10407;53.238;10.448;2022-07-23T12:51:30;25.40;74.50
20498;DHT22;10407;53.238;10.448;2022-07-23T12:54:07;25.40;74.00
20498;DHT22;10407;53.238;10.448;2022-07-23T12:56:37;25.20;73.40
20498;DHT22;10407;53.238;10.448;2022-07-23T12:59:08;24.70;73.50
20498;DHT22;10407;53.238;10.448;2022-07-23T13:01:42;24.80;75.10
20498;DHT22;10407;53.238;10.448;2022-07-23T13:04:14;25.10;73.00
20498;DHT22;10407;53.238;10.448;2022-07-23T13:06:50;25.20;73.00
20498;DHT22;10407;53.238;10.448;2022-07-23T13:09:24;25.10;72.90
20498;DHT22;10407;53.238;10.448;2022-07-23T13:11:49;24.90;73.00
20498;DHT22;10407;53.238;10.448;2022-07-23T13:14:19;24.90;72.40
20498;DHT22;10407;53.238;10.448;2022-07-23T13:16:48;25.40;73.10
20498;DHT22;10407;53.238;10.448;2022-07-23T13:19:16;25.20;73.20
20498;DHT22;10407;53.238;10.448;2022-07-23T13:21:44;25.10;73.60
20498;DHT22;10407;53.238;10.448;2022-07-23T13:24:30;25.00;73.80
20498;DHT22;10407;53.238;10.448;2022-07-23T13:26:58;24.90;74.40
20498;DHT22;10407;53.238;10.448;2022-07-23T13:29:26;24.20;73.40
20498;DHT22;10407;53.238;10.448;2022-07-23T13:31:54;24.20;76.90
20498;DHT22;10407;53.238;10.448;2022-07-23T13:34:21;24.70;75.70
20498;DHT22;10407;53.238;10.448;2022-07-23T13:36:49;24.70;74.50
20498;DHT22;10407;53.238;10.448;2022-07-23T13:39:16;24.90;73.20
20498;DHT22;10407;53.238;10.448;2022-07-23T13:41:44;25.20;74.30
20498;DHT22;10407;53.238;10.448;2022-07-23T13:44:11;25.10;73.80
20498;DHT22;10407;53.238;10.448;2022-07-23T13:46:39;25.00;73.90
20498;DHT22;10407;53.238;10.448;2022-07-23T13:49:07;24.90;74.50
20498;DHT22;10407;53.238;10.448;2022-07-23T13:51:34;24.60;74.90
20498;DHT22;10407;53.238;10.448;2022-07-23T13:54:02;24.70;74.40
20498;DHT22;10407;53.238;10.448;2022-07-23T13:56:29;24.40;71.90
20498;DHT22;10407;53.238;10.448;2022-07-23T13:58:57;24.40;72.90
20498;DHT22;10407;53.238;10.448;2022-07-23T14:01:25;24.40;73.70
20498;DHT22;10407;53.238;10.448;2022-07-23T14:03:52;24.40;75.10
20498;DHT22;10407;53.238;10.448;2022-07-23T14:06:20;24.00;75.30
20498;DHT22;10407;53.238;10.448;2022-07-23T14:08:48;24.30;75.70
20498;DHT22;10407;53.238;10.448;2022-07-23T14:11:15;24.40;75.50
20498;DHT22;10407;53.238;10.448;2022-07-23T14:13:43;24.50;75.30
20498;DHT22;10407;53.238;10.448;2022-07-23T14:16:10;24.70;75.20
20498;DHT22;10407;53.238;10.448;2022-07-23T14:18:38;24.90;73.50
20498;DHT22;10407;53.238;10.448;2022-07-23T14:21:06;24.90;73.40
20498;DHT22;10407;53.238;10.448;2022-07-23T14:23:34;24.00;74.10
20498;DHT22;10407;53.238;10.448;2022-07-23T14:26:01;24.20;75.80
20498;DHT22;10407;53.238;10.448;2022-07-23T14:28:32;24.40;75.80
20498;DHT22;10407;53.238;10.448;2022-07-23T14:30:59;24.30;76.20
20498;DHT22;10407;53.238;10.448;2022-07-23T14:33:27;24.20;76.30
20498;DHT22;10407;53.238;10.448;2022-07-23T14:35:54;24.20;77.10
20498;DHT22;10407;53.238;10.448;2022-07-23T14:38:22;24.00;77.90
20498;DHT22;10407;53.238;10.448;2022-07-23T14:40:49;23.50;80.10
20498;DHT22;10407;53.238;10.448;2022-07-23T14:43:17;23.70;80.30
20498;DHT22;10407;53.238;10.448;2022-07-23T14:45:45;23.90;78.40
20498;DHT22;10407;53.238;10.448;2022-07-23T14:48:12;23.40;78.80
20498;DHT22;10407;53.238;10.448;2022-07-23T14:50:40;23.70;79.50
20498;DHT22;10407;53.238;10.448;2022-07-23T14:53:07;23.80;78.60
20498;DHT22;10407;53.238;10.448;2022-07-23T14:55:35;23.80;78.20
20498;DHT22;10407;53.238;10.448;2022-07-23T14:58:03;23.90;78.80
20498;DHT22;10407;53.238;10.448;2022-07-23T15:00:30;24.00;79.10
20498;DHT22;10407;53.238;10.448;2022-07-23T15:02:58;23.80;79.40
20498;DHT22;10407;53.238;10.448;2022-07-23T15:05:25;23.80;80.70
20498;DHT22;10407;53.238;10.448;2022-07-23T15:07:54;24.10;78.70
20498;DHT22;10407;53.238;10.448;2022-07-23T15:10:22;24.10;77.50
20498;DHT22;10407;53.238;10.448;2022-07-23T15:12:50;24.30;76.50
20498;DHT22;10407;53.238;10.448;2022-07-23T15:15:18;24.20;76.80
20498;DHT22;10407;53.238;10.448;2022-07-23T15:17:46;23.90;76.30
20498;DHT22;10407;53.238;10.448;2022-07-23T15:20:13;23.70;77.30
20498;DHT22;10407;53.238;10.448;2022-07-23T15:22:41;23.80;78.20
20498;DHT22;10407;53.238;10.448;2022-07-23T15:25:11;23.70;78.50
20498;DHT22;10407;53.238;10.448;2022-07-23T15:27:39;23.70;77.80
20498;DHT22;10407;53.238;10.448;2022-07-23T15:30:07;23.90;76.20
20498;DHT22;10407;53.238;10.448;2022-07-23T15:32:35;23.90;75.70
20498;DHT22;10407;53.238;10.448;2022-07-23T15:35:03;23.90;76.00
20498;DHT22;10407;53.238;10.448;2022-07-23T15:37:37;24.00;76.00
20498;DHT22;10407;53.238;10.448;2022-07-23T15:40:06;24.10;76.20
20498;DHT22;10407;53.238;10.448;2022-07-23T15:42:34;24.10;76.50
20498;DHT22;10407;53.238;10.448;2022-07-23T15:45:02;24.20;76.90
20498;DHT22;10407;53.238;10.448;2022-07-23T15:47:49;23.60;79.40
20498;DHT22;10407;53.238;10.448;2022-07-23T15:50:17;23.80;80.40
20498;DHT22;10407;53.238;10.448;2022-07-23T15:52:44;24.30;79.20
20498;DHT22;10407;53.238;10.448;2022-07-23T15:55:12;24.30;79.50
20498;DHT22;10407;53.238;10.448;2022-07-23T15:57:39;24.10;79.30
20498;DHT22;10407;53.238;10.448;2022-07-23T16:00:08;24.10;78.80